Terminal Aerodrome Forecast
Issued by NWS Wilmington, OH

Current Version | Previous Version | Graphics & Text | Print | Product List | Glossary On
Versions: 1 2 3 4 5 6 7 8 9 10 11 12 13 14 15 16 17 18 19 20 21 22 23 24 25 26 27 28 29
900
FTUS41 KILN 031413 AAA
TAFCVG
TAF AMD
KCVG 031413Z 0314/0418 00000KT P6SM FEW025 OVC030
     FM031800 VRB03KT P6SM BKN035
     FM040300 00000KT P6SM FEW040 BKN150
     FM041500 13005KT P6SM VCSH BKN080=

USA.gov is the U.S. government's official web portal to all federal, state and local government web resources and services.